Time;durP1;ratioP1;P1;durP2;ratioP2;P2;SDS_P1;SDS_P2;PMS_P1;PMS_P2;Temp;Humidity;BMP_temperature;BMP_pressure;BME280_temperature;BME280_humidity;BME280_pressure;Samples;Min_cycle;Max_cycle;Signal;HPM_P1;HPM_P2
2022/11/22 00:02:15;;;;;;;2.70;1.60;;;;;;;3.84;75.48;93371.75;5063922;28;20091;-90
2022/11/22 00:04:41;;;;;;;2.92;1.73;;;;;;;3.85;75.69;93375.94;5063625;28;20017;-89
2022/11/22 00:07:06;;;;;;;2.22;1.65;;;;;;;3.86;75.88;93378.31;5063472;28;20013;-88
2022/11/22 00:09:32;;;;;;;2.90;1.48;;;;;;;3.90;75.82;93381.19;5063777;28;20099;-90
2022/11/22 00:11:58;;;;;;;3.33;1.60;;;;;;;3.84;75.66;93382.31;5063255;28;20017;-85
2022/11/22 00:14:24;;;;;;;3.10;1.98;;;;;;;3.82;75.34;93366.75;5063037;28;20023;-85
2022/11/22 00:16:49;;;;;;;3.55;1.70;;;;;;;3.88;74.63;93378.81;5062998;28;20021;-85
2022/11/22 00:19:14;;;;;;;4.13;2.03;;;;;;;3.88;74.58;93392.00;5062755;28;20017;-85
2022/11/22 00:21:40;;;;;;;2.50;1.58;;;;;;;3.86;74.47;93394.13;5062701;28;20053;-85
2022/11/22 00:24:05;;;;;;;2.90;1.80;;;;;;;3.84;74.61;93392.84;5062920;28;20040;-85
2022/11/22 00:26:31;;;;;;;3.45;1.98;;;;;;;3.82;75.42;93387.84;5062958;28;20189;-85
2022/11/22 00:28:56;;;;;;;2.75;1.88;;;;;;;3.76;75.34;93383.72;5062616;28;20362;-85
2022/11/22 00:31:22;;;;;;;2.55;1.83;;;;;;;3.75;75.25;93390.84;5062866;28;20028;-86
2022/11/22 00:33:48;;;;;;;2.88;2.00;;;;;;;3.72;75.29;93390.59;5066428;28;20021;-85
2022/11/22 00:36:15;;;;;;;2.47;1.75;;;;;;;3.74;75.12;93389.25;5066816;28;20028;-86
2022/11/22 00:38:42;;;;;;;3.20;1.98;;;;;;;3.77;74.88;93386.06;5066864;28;20028;-85
2022/11/22 00:41:07;;;;;;;2.30;1.55;;;;;;;3.85;74.63;93392.56;5066932;28;20023;-85
2022/11/22 00:43:33;;;;;;;2.80;1.80;;;;;;;3.91;75.02;93388.00;5065838;28;20267;-85
2022/11/22 00:45:59;;;;;;;4.15;2.17;;;;;;;4.01;75.05;93388.69;5066865;28;20023;-85
2022/11/22 00:48:24;;;;;;;4.53;2.08;;;;;;;4.03;75.16;93401.59;5065382;28;20017;-85
2022/11/22 00:50:50;;;;;;;3.28;2.20;;;;;;;4.08;75.38;93395.47;5066398;28;20023;-84
2022/11/22 00:53:16;;;;;;;3.72;2.10;;;;;;;4.01;74.67;93398.47;5066505;28;20032;-85
2022/11/22 00:55:41;;;;;;;2.72;1.80;;;;;;;3.99;75.29;93387.41;5066451;28;20322;-85
2022/11/22 00:58:07;;;;;;;3.13;2.22;;;;;;;3.97;74.86;93394.81;5065956;28;20331;-85
2022/11/22 01:00:33;;;;;;;3.53;1.92;;;;;;;3.98;75.35;93385.81;5066238;28;20017;-85
2022/11/22 01:02:58;;;;;;;5.03;2.13;;;;;;;3.93;75.15;93386.69;5066245;28;20025;-86
2022/11/22 01:05:24;;;;;;;3.10;1.90;;;;;;;3.95;74.65;93378.50;5066207;28;20031;-85
2022/11/22 01:07:49;;;;;;;4.03;1.75;;;;;;;3.93;74.79;93391.16;5066156;28;20016;-85
2022/11/22 01:10:15;;;;;;;6.32;1.83;;;;;;;3.92;75.00;93387.72;5066168;28;20021;-87
2022/11/22 01:12:40;;;;;;;3.40;2.10;;;;;;;3.90;74.61;93383.81;5065110;28;20029;-86
2022/11/22 01:15:06;;;;;;;3.00;1.73;;;;;;;3.90;74.98;93384.59;5066128;28;20104;-87
2022/11/22 01:17:31;;;;;;;4.28;2.15;;;;;;;3.87;75.01;93387.81;5064369;28;20032;-87
2022/11/22 01:19:57;;;;;;;4.05;2.30;;;;;;;3.87;75.13;93384.38;5065795;28;20025;-87
2022/11/22 01:22:22;;;;;;;3.85;2.20;;;;;;;3.88;75.17;93378.03;5066012;28;20041;-87
2022/11/22 01:24:48;;;;;;;5.43;2.58;;;;;;;3.87;75.13;93382.53;5065258;28;20176;-87
2022/11/22 01:27:13;;;;;;;4.25;2.33;;;;;;;3.86;75.17;93382.81;5065723;28;20024;-87
2022/11/22 01:29:39;;;;;;;3.67;2.45;;;;;;;3.87;75.03;93384.38;5065922;28;20021;-87
2022/11/22 01:32:05;;;;;;;3.63;2.20;;;;;;;3.85;75.42;93387.31;5065828;28;20100;-87
2022/11/22 01:34:31;;;;;;;3.15;2.10;;;;;;;3.78;75.30;93378.94;5065837;28;20272;-87
2022/11/22 01:36:56;;;;;;;3.67;2.40;;;;;;;3.75;75.18;93377.66;5066130;28;20029;-90
2022/11/22 01:39:21;;;;;;;3.97;2.40;;;;;;;3.75;75.17;93375.03;5066489;28;20029;-90
2022/11/22 01:41:47;;;;;;;3.88;2.50;;;;;;;3.72;75.18;93378.22;5066220;28;20021;-89
2022/11/22 01:44:28;;;;;;;3.88;2.28;;;;;;;3.73;75.39;93369.25;5065941;28;20021;-88
2022/11/22 01:47:01;;;;;;;3.95;2.65;;;;;;;3.75;75.18;93376.88;5066109;28;20219;-89
2022/11/22 01:49:33;;;;;;;3.38;2.20;;;;;;;3.76;75.44;93379.22;5066200;28;20021;-89
2022/11/22 01:52:08;;;;;;;4.40;2.88;;;;;;;3.78;75.24;93374.44;5065012;28;20045;-89
2022/11/22 01:54:39;;;;;;;4.88;3.17;;;;;;;3.76;75.28;93378.44;5066204;28;20025;-88
2022/11/22 01:57:09;;;;;;;4.82;2.42;;;;;;;3.74;75.44;93370.81;5065911;28;20052;-88
2022/11/22 01:59:40;;;;;;;4.93;3.25;;;;;;;3.74;75.45;93370.81;5065779;28;20052;-88
2022/11/22 02:02:05;;;;;;;8.20;3.70;;;;;;;3.75;75.32;93377.66;5065744;28;20092;-88
2022/11/22 02:04:33;;;;;;;5.50;3.65;;;;;;;3.79;75.30;93378.66;5065815;28;20028;-88
2022/11/22 02:07:13;;;;;;;6.00;3.60;;;;;;;3.78;75.14;93387.63;5066328;28;20057;-90
2022/11/22 02:09:40;;;;;;;5.47;3.30;;;;;;;3.77;75.50;93380.81;5065755;28;20035;-87
2022/11/22 02:12:08;;;;;;;6.20;3.83;;;;;;;3.79;75.52;93381.31;5065518;28;20032;-89
2022/11/22 02:14:35;;;;;;;7.25;3.83;;;;;;;3.80;75.74;93385.50;5065465;28;20026;-87
2022/11/22 02:17:01;;;;;;;9.20;4.65;;;;;;;3.80;75.95;93387.34;5065701;28;20025;-88
2022/11/22 02:19:38;;;;;;;9.32;4.88;;;;;;;3.82;75.97;93379.94;5065726;28;20027;-88
2022/11/22 02:22:22;;;;;;;9.60;5.07;;;;;;;3.87;76.18;93379.09;5064266;28;20024;-88
2022/11/22 02:24:58;;;;;;;9.65;5.15;;;;;;;3.84;76.57;93383.09;5065398;28;20025;-88
2022/11/22 02:27:24;;;;;;;8.70;4.97;;;;;;;3.82;76.43;93377.31;5065154;28;20092;-87
2022/11/22 02:29:50;;;;;;;9.00;4.20;;;;;;;3.83;75.98;93389.44;5065225;28;20021;-88
2022/11/22 02:32:15;;;;;;;7.20;4.13;;;;;;;3.79;76.41;93378.66;5065227;28;20090;-87
2022/11/22 02:34:45;;;;;;;5.95;3.90;;;;;;;3.73;76.68;93379.78;5064800;28;20048;-87
2022/11/22 02:37:16;;;;;;;7.93;3.92;;;;;;;3.71;76.54;93387.19;5064873;28;20039;-87
2022/11/22 02:39:44;;;;;;;8.20;4.22;;;;;;;3.68;76.43;93387.75;5064627;28;20021;-87
2022/11/22 02:42:10;;;;;;;6.50;4.20;;;;;;;3.67;76.62;93377.50;5064612;28;20021;-87
2022/11/22 02:44:37;;;;;;;5.38;3.38;;;;;;;3.63;76.49;93366.72;5064801;28;20013;-88
2022/11/22 02:47:03;;;;;;;6.13;3.70;;;;;;;3.64;76.72;93376.19;5065206;28;20024;-88
2022/11/22 02:49:28;;;;;;;5.43;3.08;;;;;;;3.58;76.33;93372.06;5064899;28;20024;-88
2022/11/22 02:51:54;;;;;;;5.07;3.50;;;;;;;3.49;76.54;93366.63;5063835;28;20021;-87
2022/11/22 02:54:19;;;;;;;5.55;3.42;;;;;;;3.49;76.66;93365.84;5064223;28;20063;-87
2022/11/22 02:56:45;;;;;;;5.88;3.58;;;;;;;3.45;76.73;93362.19;5063803;28;20395;-87
2022/11/22 02:59:10;;;;;;;5.72;3.00;;;;;;;3.47;76.53;93367.97;5063929;28;20086;-87
2022/11/22 03:01:36;;;;;;;6.95;4.50;;;;;;;3.41;76.56;93369.88;5064081;28;20323;-87
2022/11/22 03:04:01;;;;;;;6.22;4.38;;;;;;;3.38;76.16;93368.59;5064181;28;20032;-85
2022/11/22 03:06:27;;;;;;;7.57;4.35;;;;;;;3.37;76.22;93358.31;5063959;28;20365;-86
2022/11/22 03:08:52;;;;;;;10.40;4.80;;;;;;;3.35;76.10;93361.22;5064081;28;20025;-86
2022/11/22 03:11:18;;;;;;;8.90;5.13;;;;;;;3.32;76.16;93353.91;5063781;28;20315;-86
2022/11/22 03:13:43;;;;;;;11.57;4.25;;;;;;;3.28;76.13;93350.25;5062648;28;20029;-86
2022/11/22 03:16:09;;;;;;;6.28;4.22;;;;;;;3.24;76.12;93351.06;5062810;28;20020;-85
2022/11/22 03:18:35;;;;;;;8.80;4.55;;;;;;;3.20;76.13;93356.91;5063909;28;20092;-86
2022/11/22 03:21:06;;;;;;;9.82;3.83;;;;;;;3.15;76.49;93358.81;5063853;28;20251;-85
2022/11/22 03:23:32;;;;;;;6.32;3.45;;;;;;;3.13;76.53;93366.97;5063954;28;20215;-85
2022/11/22 03:25:57;;;;;;;9.23;3.88;;;;;;;3.08;76.79;93363.63;5063952;28;20028;-85
2022/11/22 03:28:23;;;;;;;6.68;4.32;;;;;;;3.08;76.88;93353.88;5063691;28;20323;-86
2022/11/22 03:30:48;;;;;;;8.40;4.07;;;;;;;3.07;77.07;93352.28;5063388;28;20319;-86
2022/11/22 03:33:14;;;;;;;10.88;4.97;;;;;;;3.07;76.97;93356.78;5063652;28;20055;-86
2022/11/22 03:35:39;;;;;;;11.77;5.47;;;;;;;3.06;77.20;93355.22;5063763;28;20020;-86
2022/11/22 03:38:05;;;;;;;12.05;6.75;;;;;;;3.01;77.25;93351.56;5063511;28;20021;-86
2022/11/22 03:40:31;;;;;;;9.90;5.68;;;;;;;3.02;77.11;93360.25;5063447;28;20048;-86
2022/11/22 03:43:01;;;;;;;12.07;5.78;;;;;;;2.97;77.28;93355.81;5063446;28;20024;-85
2022/11/22 03:45:27;;;;;;;10.45;4.88;;;;;;;2.94;77.42;93353.72;5063777;28;20270;-88
2022/11/22 03:47:55;;;;;;;10.25;6.85;;;;;;;2.91;77.58;93354.31;5063903;28;20092;-88
2022/11/22 03:50:20;;;;;;;15.27;6.35;;;;;;;2.92;77.46;93353.22;5063627;28;20071;-88
2022/11/22 03:52:46;;;;;;;8.90;6.10;;;;;;;2.94;77.32;93361.63;5062143;28;20327;-86
2022/11/22 03:55:11;;;;;;;12.73;5.63;;;;;;;2.91;77.34;93359.56;5063115;28;20052;-85
2022/11/22 03:57:36;;;;;;;9.45;4.72;;;;;;;2.87;77.46;93357.75;5062995;28;20055;-84
2022/11/22 04:00:03;;;;;;;9.15;5.40;;;;;;;2.86;77.43;93369.34;5063296;28;20215;-85
2022/11/22 04:02:29;;;;;;;8.85;5.00;;;;;;;2.86;77.26;93374.59;5063212;28;20029;-85
2022/11/22 04:04:54;;;;;;;8.43;4.35;;;;;;;2.86;77.32;93375.38;5061789;28;20032;-86
2022/11/22 04:07:20;;;;;;;7.60;4.50;;;;;;;2.82;77.48;93371.75;5062274;28;20017;-86
2022/11/22 04:09:45;;;;;;;6.60;4.13;;;;;;;2.79;77.24;93382.84;5063119;28;20021;-86
2022/11/22 04:12:10;;;;;;;9.40;5.20;;;;;;;2.74;77.52;93381.00;5063116;28;20051;-86
2022/11/22 04:17:39;;;;;;;7.90;4.68;;;;;;;2.69;77.71;93383.69;5062781;28;20035;-86
2022/11/22 04:23:15;;;;;;;8.63;4.53;;;;;;;2.66;77.64;93384.22;5062894;28;20024;-85
2022/11/22 04:25:44;;;;;;;7.43;4.95;;;;;;;2.64;77.77;93391.59;5062844;28;20074;-84
2022/11/22 04:28:11;;;;;;;9.23;4.85;;;;;;;2.64;77.69;93380.31;5062671;28;20017;-84
2022/11/22 04:33:21;;;;;;;7.93;4.93;;;;;;;2.63;77.60;93394.53;5062838;28;20353;-86
2022/11/22 04:35:47;;;;;;;7.90;4.65;;;;;;;2.60;77.54;93391.38;5062809;28;20013;-87
2022/11/22 04:38:13;;;;;;;6.10;3.85;;;;;;;2.60;77.83;93401.88;5061540;28;20287;-87
2022/11/22 04:40:39;;;;;;;10.18;5.90;;;;;;;2.58;77.69;93398.75;5062708;28;20021;-87
2022/11/22 04:45:50;;;;;;;10.80;6.97;;;;;;;2.59;77.82;93404.81;5062771;28;20036;-87
2022/11/22 04:48:15;;;;;;;7.10;4.78;;;;;;;2.57;77.74;93404.31;5062637;28;20020;-85
2022/11/22 04:53:26;;;;;;;6.22;3.83;;;;;;;2.53;77.79;93411.94;5062620;28;20102;-88
2022/11/22 04:55:52;;;;;;;10.32;4.97;;;;;;;2.51;77.77;93419.34;5063057;28;20025;-89
2022/11/22 04:58:17;;;;;;;8.20;4.60;;;;;;;2.53;77.93;93419.06;5062831;28;20033;-88
2022/11/22 05:00:43;;;;;;;8.38;4.78;;;;;;;2.48;78.00;93417.22;5062937;28;20031;-89
2022/11/22 05:03:09;;;;;;;10.75;5.10;;;;;;;2.48;77.93;93427.75;5062648;28;20199;-88
2022/11/22 05:05:40;;;;;;;9.05;5.05;;;;;;;2.45;78.34;93430.16;5062897;28;20020;-88
2022/11/22 05:08:07;;;;;;;10.90;4.97;;;;;;;2.44;78.01;93434.63;5061773;28;20101;-89
2022/11/22 05:13:20;;;;;;;7.68;4.43;;;;;;;2.38;77.78;93419.94;5062299;28;20032;-86
2022/11/22 05:15:46;;;;;;;10.43;5.10;;;;;;;2.36;77.93;93411.53;5062339;28;20311;-87
2022/11/22 05:18:12;;;;;;;10.48;4.75;;;;;;;2.38;78.25;93426.00;5062940;28;20031;-87
2022/11/22 05:20:37;;;;;;;6.93;4.22;;;;;;;2.41;78.07;93422.03;5066195;28;20021;-87
2022/11/22 05:25:47;;;;;;;9.40;5.40;;;;;;;2.42;77.59;93428.84;5065825;28;20039;-87
2022/11/22 05:28:13;;;;;;;14.23;7.07;;;;;;;2.43;77.50;93432.28;5065839;28;20359;-87
2022/11/22 05:30:39;;;;;;;14.57;7.00;;;;;;;2.39;77.73;93427.56;5065593;28;20032;-86
2022/11/22 05:33:04;;;;;;;14.02;7.82;;;;;;;2.36;77.76;93419.41;5065748;28;20082;-86
2022/11/22 05:35:30;;;;;;;22.02;10.00;;;;;;;2.36;78.24;93416.78;5065834;28;20330;-87
2022/11/22 05:37:56;;;;;;;12.77;6.93;;;;;;;2.39;78.28;93421.50;5065207;28;20025;-87
2022/11/22 05:40:21;;;;;;;11.55;7.38;;;;;;;2.42;78.29;93418.31;5065308;28;20334;-85
2022/11/22 05:42:47;;;;;;;11.50;7.35;;;;;;;2.43;78.19;93430.44;5065472;28;20028;-84
2022/11/22 05:45:13;;;;;;;14.93;7.20;;;;;;;2.45;78.34;93425.69;5065483;28;20028;-84
2022/11/22 05:47:38;;;;;;;14.38;7.30;;;;;;;2.49;78.76;93429.34;5065317;28;20024;-85
2022/11/22 05:50:04;;;;;;;12.25;6.95;;;;;;;2.55;78.20;93422.22;5063929;28;20028;-85
2022/11/22 05:52:29;;;;;;;17.00;7.30;;;;;;;2.55;77.74;93430.09;5065318;28;20372;-86
2022/11/22 05:54:55;;;;;;;9.57;5.72;;;;;;;2.52;77.79;93420.88;5065181;28;20066;-85
2022/11/22 05:57:20;;;;;;;11.77;6.90;;;;;;;2.52;77.97;93422.75;5064960;28;20032;-85
2022/11/22 05:59:46;;;;;;;14.63;8.13;;;;;;;2.58;78.02;93421.66;5063774;28;20106;-85
2022/11/22 06:02:11;;;;;;;15.25;8.43;;;;;;;2.63;77.96;93420.84;5064981;28;20095;-85
2022/11/22 06:04:37;;;;;;;13.48;7.55;;;;;;;2.64;78.01;93423.19;5065064;28;20092;-85
2022/11/22 06:07:02;;;;;;;9.90;6.85;;;;;;;2.68;78.18;93428.69;5064914;28;20314;-85
2022/11/22 06:09:28;;;;;;;10.35;7.15;;;;;;;2.76;78.27;93436.00;5064952;28;20384;-85
2022/11/22 06:11:53;;;;;;;11.48;6.15;;;;;;;2.83;78.42;93441.75;5063569;28;20311;-86
2022/11/22 06:14:18;;;;;;;7.70;5.40;;;;;;;2.89;78.40;93445.94;5064857;28;20024;-86
2022/11/22 06:16:44;;;;;;;7.97;5.38;;;;;;;2.97;78.58;93436.63;5063345;28;20020;-87
2022/11/22 06:19:09;;;;;;;13.95;5.40;;;;;;;3.06;78.39;93444.75;5064532;28;20043;-85
2022/11/22 06:21:35;;;;;;;14.10;6.63;;;;;;;3.09;78.43;93444.19;5063486;28;20024;-85
2022/11/22 06:24:00;;;;;;;11.48;6.32;;;;;;;3.18;78.28;93442.53;5064707;28;20017;-85
2022/11/22 06:26:26;;;;;;;15.75;8.02;;;;;;;3.25;78.31;93437.72;5064611;28;20246;-85
2022/11/22 06:28:53;;;;;;;14.13;6.45;;;;;;;3.32;78.32;93440.81;5064528;28;20192;-86
2022/11/22 06:31:21;;;;;;;14.23;7.80;;;;;;;3.40;77.98;93434.94;5063581;28;20021;-87
2022/11/22 06:33:47;;;;;;;17.45;9.02;;;;;;;3.50;77.43;93425.38;5063333;28;20044;-86
2022/11/22 06:36:15;;;;;;;16.83;9.13;;;;;;;3.55;77.53;93444.56;5064437;28;20071;-86
2022/11/22 06:38:42;;;;;;;15.50;8.55;;;;;;;3.63;77.58;93432.63;5064187;28;20036;-87
2022/11/22 06:41:12;;;;;;;16.35;8.73;;;;;;;3.68;77.29;93431.78;5063211;28;20052;-86
2022/11/22 06:43:40;;;;;;;38.13;18.15;;;;;;;3.71;76.86;93445.19;5064296;28;20052;-87
2022/11/22 06:46:07;;;;;;;33.55;15.40;;;;;;;3.76;76.53;93446.97;5063124;28;20025;-85
2022/11/22 06:48:35;;;;;;;40.80;19.85;;;;;;;3.75;76.34;93451.47;5064079;28;20272;-84
2022/11/22 06:51:06;;;;;;;46.70;21.45;;;;;;;3.79;75.76;93449.84;5064153;28;20256;-85
2022/11/22 06:53:34;;;;;;;33.90;17.35;;;;;;;3.82;76.37;93451.91;5064046;28;20069;-85
2022/11/22 06:56:01;;;;;;;22.73;12.50;;;;;;;3.82;75.89;93454.53;5064340;28;20059;-91
2022/11/22 06:58:27;;;;;;;20.48;11.98;;;;;;;3.86;76.01;93449.50;5063796;28;20041;-89
2022/11/22 07:00:58;;;;;;;19.77;9.80;;;;;;;3.92;75.78;93463.41;5064500;28;20044;-94
2022/11/22 07:03:23;;;;;;;17.90;10.65;;;;;;;3.98;75.75;93457.03;5064639;28;20215;-85
2022/11/22 07:05:50;;;;;;;15.63;9.68;;;;;;;4.07;75.65;93449.25;5064343;28;20021;-83
2022/11/22 07:08:18;;;;;;;13.00;7.97;;;;;;;4.15;75.67;93460.00;5064765;28;20017;-86
2022/11/22 07:10:44;;;;;;;16.83;9.20;;;;;;;4.24;75.76;93451.47;5064313;28;20149;-85
2022/11/22 07:13:10;;;;;;;16.80;8.55;;;;;;;4.30;75.80;93451.09;5064190;28;20055;-87
2022/11/22 07:15:43;;;;;;;14.10;7.88;;;;;;;4.36;75.75;93444.69;5064563;28;20316;-92
2022/11/22 07:18:08;;;;;;;13.68;8.68;;;;;;;4.43;75.66;93439.06;5063619;28;20092;-87
2022/11/22 07:20:34;;;;;;;22.95;9.35;;;;;;;4.51;75.90;93443.69;5063653;28;20342;-87
2022/11/22 07:23:02;;;;;;;14.45;7.68;;;;;;;4.54;75.47;93448.41;5062807;28;20025;-95
2022/11/22 07:25:28;;;;;;;15.20;7.78;;;;;;;4.65;74.98;93445.63;5064828;28;20049;-80
2022/11/22 07:27:53;;;;;;;16.17;7.72;;;;;;;4.71;74.51;93460.34;5063073;28;20017;-79
2022/11/22 07:30:19;;;;;;;12.50;7.10;;;;;;;4.70;74.14;93449.00;5063123;28;20043;-82
2022/11/22 07:32:47;;;;;;;14.65;7.47;;;;;;;4.77;74.11;93452.03;5063039;28;20028;-82
2022/11/22 07:35:13;;;;;;;16.10;7.68;;;;;;;4.83;74.25;93431.63;5063141;28;20028;-83
2022/11/22 07:37:38;;;;;;;13.45;7.38;;;;;;;4.90;73.67;93432.03;5062966;28;20091;-81
2022/11/22 07:40:04;;;;;;;14.52;7.25;;;;;;;4.98;73.46;93431.38;5063434;28;20021;-88
2022/11/22 07:42:37;;;;;;;12.65;7.47;;;;;;;5.02;73.41;93421.81;5063959;28;20195;-91
2022/11/22 07:45:03;;;;;;;13.82;8.20;;;;;;;5.05;73.40;93401.19;5062477;28;20028;-80
2022/11/22 07:47:29;;;;;;;13.70;8.38;;;;;;;5.07;73.40;93404.31;5063357;28;20012;-88
2022/11/22 07:49:54;;;;;;;16.98;7.93;;;;;;;5.13;73.33;93414.53;5063418;28;20028;-82
2022/11/22 07:52:25;;;;;;;15.23;8.85;;;;;;;5.20;73.32;93422.84;5063609;28;20016;-91
2022/11/22 07:54:50;;;;;;;15.70;8.63;;;;;;;5.27;73.33;93425.16;5063281;28;20048;-85
2022/11/22 07:57:16;;;;;;;13.98;7.63;;;;;;;5.33;73.13;93431.91;5062966;28;20035;-81
2022/11/22 07:59:41;;;;;;;13.48;7.57;;;;;;;5.41;72.48;93428.59;5061486;28;20056;-83
2022/11/22 08:02:10;;;;;;;15.38;6.95;;;;;;;5.51;71.86;93442.72;5062858;28;20036;-82
2022/11/22 08:04:36;;;;;;;17.50;7.45;;;;;;;5.54;70.10;93434.97;5062855;28;20028;-81
2022/11/22 08:07:01;;;;;;;16.85;7.25;;;;;;;5.56;70.33;93435.47;5062889;28;20214;-81
2022/11/22 08:09:26;;;;;;;21.67;7.88;;;;;;;5.56;70.28;93421.47;5062682;28;20032;-82
2022/11/22 08:11:52;;;;;;;14.13;7.65;;;;;;;5.52;70.33;93421.28;5062509;28;20203;-81
2022/11/22 08:14:17;;;;;;;15.30;8.07;;;;;;;5.55;70.24;93425.19;5062780;28;20047;-81
2022/11/22 08:16:43;;;;;;;13.13;6.97;;;;;;;5.58;70.08;93408.75;5062693;28;20414;-79
2022/11/22 08:19:08;;;;;;;13.55;7.43;;;;;;;5.61;70.10;93418.72;5062644;28;20029;-79
2022/11/22 08:21:35;;;;;;;13.77;7.15;;;;;;;5.66;70.28;93431.88;5062922;28;20037;-83
2022/11/22 08:24:00;;;;;;;12.98;6.68;;;;;;;5.73;70.97;93421.69;5062877;28;20017;-86
2022/11/22 08:26:26;;;;;;;13.00;6.47;;;;;;;5.82;70.41;93411.19;5062378;28;20372;-85
2022/11/22 08:28:51;;;;;;;9.93;6.10;;;;;;;5.89;70.06;93406.31;5062482;28;20020;-84
2022/11/22 08:31:18;;;;;;;8.50;5.00;;;;;;;6.06;68.60;93418.97;5062594;28;20021;-83
2022/11/22 08:33:44;;;;;;;13.85;8.40;;;;;;;6.17;68.49;93406.34;5062200;28;20024;-81
2022/11/22 08:36:10;;;;;;;10.23;5.55;;;;;;;6.28;68.38;93409.53;5062467;28;20024;-81
2022/11/22 08:38:36;;;;;;;7.78;5.63;;;;;;;6.41;67.63;93391.00;5061355;28;20100;-81
2022/11/22 08:41:03;;;;;;;6.53;4.20;;;;;;;6.53;66.59;93393.09;5062551;28;20063;-80
2022/11/22 08:43:29;;;;;;;7.35;4.43;;;;;;;6.63;66.47;93379.66;5062654;28;20108;-79
2022/11/22 08:45:56;;;;;;;10.23;5.10;;;;;;;6.73;66.44;93367.25;5062411;28;20020;-82
2022/11/22 08:48:22;;;;;;;8.88;5.75;;;;;;;6.85;66.38;93367.50;5061044;28;20056;-79
2022/11/22 08:50:56;;;;;;;14.00;7.68;;;;;;;7.00;67.07;93375.09;5062145;28;20025;-79
2022/11/22 08:53:22;;;;;;;12.68;7.55;;;;;;;7.10;66.92;93370.63;5063468;28;20036;-79
2022/11/22 08:55:47;;;;;;;14.15;8.35;;;;;;;7.16;66.82;93372.06;5066376;28;20025;-79
2022/11/22 08:58:13;;;;;;;14.00;7.20;;;;;;;7.23;67.24;93375.06;5065995;28;20292;-79
2022/11/22 09:00:38;;;;;;;14.10;7.80;;;;;;;7.33;66.58;93368.75;5065951;28;20041;-80
2022/11/22 09:03:03;;;;;;;12.65;7.70;;;;;;;7.39;66.20;93367.53;5066186;28;20192;-80
2022/11/22 09:05:34;;;;;;;15.32;7.13;;;;;;;7.51;65.65;93375.69;5066096;28;20024;-81
2022/11/22 09:08:04;;;;;;;21.88;8.30;;;;;;;7.66;65.69;93363.13;5065889;28;20020;-81
2022/11/22 09:10:32;;;;;;;14.77;7.60;;;;;;;7.72;65.59;93365.31;5065990;28;20246;-82
2022/11/22 09:12:58;;;;;;;21.70;8.18;;;;;;;7.81;65.12;93363.47;5066183;28;20024;-82
2022/11/22 09:15:23;;;;;;;14.05;7.07;;;;;;;7.93;64.35;93352.25;5065857;28;20021;-81
2022/11/22 09:17:49;;;;;;;14.55;8.93;;;;;;;8.02;64.00;93352.31;5066052;28;20021;-83
2022/11/22 09:20:15;;;;;;;14.30;8.05;;;;;;;8.08;63.42;93361.69;5065798;28;20315;-83
2022/11/22 09:22:40;;;;;;;18.75;9.38;;;;;;;8.11;63.93;93354.97;5065924;28;20024;-86
2022/11/22 09:25:06;;;;;;;17.17;8.57;;;;;;;8.19;63.91;93352.31;5065502;28;20243;-79
2022/11/22 09:27:32;;;;;;;24.60;8.45;;;;;;;8.22;63.27;93367.66;5065706;28;20024;-77
2022/11/22 09:29:58;;;;;;;13.40;8.88;;;;;;;8.27;63.25;93360.63;5065900;28;20311;-82
2022/11/22 09:32:24;;;;;;;18.60;8.70;;;;;;;8.30;63.70;93350.16;5065588;28;20092;-80
2022/11/22 09:34:49;;;;;;;21.15;9.27;;;;;;;8.36;63.74;93345.47;5065644;28;20021;-81
2022/11/22 09:37:17;;;;;;;14.95;8.63;;;;;;;8.44;63.71;93336.75;5065407;28;20341;-80
2022/11/22 09:39:43;;;;;;;17.63;9.88;;;;;;;8.52;63.72;93335.97;5064242;28;20024;-80
2022/11/22 09:42:27;;;;;;;15.77;9.32;;;;;;;8.66;63.53;93335.06;5065570;28;20039;-79
2022/11/22 09:45:10;;;;;;;15.07;9.10;;;;;;;8.68;62.86;93328.31;5065315;28;20334;-82
2022/11/22 09:47:46;;;;;;;16.65;8.27;;;;;;;8.77;62.91;93330.97;5065344;28;20040;-80
2022/11/22 09:50:38;;;;;;;15.27;8.90;;;;;;;8.83;62.33;93332.38;5063837;28;20028;-82
2022/11/22 09:53:19;;;;;;;17.63;7.70;;;;;;;8.87;61.67;93330.66;5065095;28;20215;-81
2022/11/22 09:55:48;;;;;;;19.65;7.90;;;;;;;8.93;62.13;93326.72;5063556;28;20029;-80
2022/11/22 09:58:38;;;;;;;13.18;6.32;;;;;;;8.96;60.33;93328.78;5064869;28;20044;-80
2022/11/22 10:01:38;;;;;;;11.40;6.30;;;;;;;8.88;60.10;93326.91;5063699;28;20036;-80
2022/11/22 10:04:21;;;;;;;11.95;5.95;;;;;;;8.99;60.62;93325.47;5064315;28;20035;-80
2022/11/22 10:06:56;;;;;;;12.48;6.95;;;;;;;9.13;60.29;93321.88;5064582;28;20265;-80
2022/11/22 10:09:38;;;;;;;9.90;6.75;;;;;;;9.24;59.19;93325.75;5063741;28;20205;-81
2022/11/22 10:12:26;;;;;;;16.30;6.15;;;;;;;9.33;59.24;93317.75;5064982;28;20024;-80
2022/11/22 10:15:04;;;;;;;8.93;4.85;;;;;;;9.48;56.97;93303.13;5064920;28;20033;-82
2022/11/22 10:18:21;;;;;;;9.48;5.80;;;;;;;9.48;56.44;93297.81;5065012;28;20223;-81
2022/11/22 10:20:46;;;;;;;11.10;6.15;;;;;;;9.46;56.83;93300.78;5042965;28;20025;-80
2022/11/22 10:23:21;;;;;;;11.82;5.53;;;;;;;9.57;57.13;93296.69;5042913;28;20033;-81
2022/11/22 10:25:55;;;;;;;9.55;5.70;;;;;;;9.60;56.90;93284.63;5056421;28;20203;-80
2022/11/22 10:28:41;;;;;;;9.48;4.85;;;;;;;9.62;56.46;93279.75;5065257;28;20088;-80
2022/11/22 10:31:30;;;;;;;8.70;5.28;;;;;;;9.70;56.48;93278.94;5064627;28;20024;-83
2022/11/22 10:34:09;;;;;;;13.93;6.00;;;;;;;9.80;56.93;93278.56;5022710;28;20057;-84
2022/11/22 10:36:44;;;;;;;11.52;6.90;;;;;;;9.89;56.43;93265.22;5061243;28;20056;-81
2022/11/22 10:39:57;;;;;;;12.25;6.00;;;;;;;9.96;56.57;93267.38;5064385;28;20057;-84
2022/11/22 10:42:33;;;;;;;;;;;;;;;10.01;55.77;93267.16;5048422;28;20056;-83
2022/11/22 10:45:09;;;;;;;12.90;5.93;;;;;;;9.95;55.96;93252.47;5064655;28;20191;-85
2022/11/22 10:47:53;;;;;;;17.17;5.95;;;;;;;10.00;56.45;93254.97;5063987;28;20017;-81
2022/11/22 10:50:36;;;;;;;12.20;6.47;;;;;;;10.10;55.98;93249.25;5063263;28;20320;-80
2022/11/22 10:53:23;;;;;;;11.85;6.65;;;;;;;10.12;55.80;93244.38;5064198;28;20052;-83
2022/11/22 10:56:16;;;;;;;13.65;6.65;;;;;;;10.11;56.13;93255.34;5064401;28;20031;-84
2022/11/22 10:59:06;;;;;;;11.35;7.22;;;;;;;10.07;55.77;93246.47;5064079;28;20041;-82
2022/11/22 11:01:54;;;;;;;12.30;7.63;;;;;;;10.02;56.38;93252.75;5062873;28;20032;-81
2022/11/22 11:04:22;;;;;;;9.82;6.88;;;;;;;10.04;55.50;93251.31;5063930;28;20093;-77
2022/11/22 11:06:59;;;;;;;15.68;7.50;;;;;;;9.99;55.48;93237.41;5062998;28;20074;-77
2022/11/22 11:09:27;;;;;;;13.70;6.15;;;;;;;9.94;55.96;93242.94;5061209;28;20330;-77
2022/11/22 11:11:53;;;;;;;10.35;7.03;;;;;;;9.84;56.12;93234.22;5061931;28;20323;-78
2022/11/22 11:14:31;;;;;;;14.40;7.55;;;;;;;9.91;56.53;93246.25;5061953;28;20029;-77
2022/11/22 11:16:58;;;;;;;15.95;7.55;;;;;;;9.93;56.73;93241.38;5061365;28;20035;-78
2022/11/22 11:19:28;;;;;;;13.88;8.05;;;;;;;9.89;57.26;93237.81;5061700;28;20258;-78
2022/11/22 11:22:10;;;;;;;12.38;7.30;;;;;;;9.94;57.20;93229.63;5062066;28;20215;-78
2022/11/22 11:24:39;;;;;;;16.55;7.15;;;;;;;9.90;56.01;93234.81;5062679;28;20025;-78
2022/11/22 11:27:06;;;;;;;14.82;7.82;;;;;;;9.81;56.52;93237.56;5063379;28;20070;-78
2022/11/22 11:29:37;;;;;;;14.05;7.32;;;;;;;9.79;57.33;93234.44;5063795;28;20322;-79
2022/11/22 11:32:12;;;;;;;20.98;7.28;;;;;;;9.77;57.73;93218.00;5062219;28;20052;-78
2022/11/22 11:34:40;;;;;;;14.45;7.78;;;;;;;9.80;57.66;93220.00;5063265;28;20091;-77
2022/11/22 11:37:17;;;;;;;19.60;7.88;;;;;;;9.81;58.04;93210.94;5063315;28;20204;-79
2022/11/22 11:39:46;;;;;;;18.83;7.70;;;;;;;9.80;57.82;93216.56;5063404;28;20104;-79
2022/11/22 11:42:22;;;;;;;22.08;7.63;;;;;;;9.81;58.13;93213.59;5063259;28;20103;-80
2022/11/22 11:44:47;;;;;;;14.57;7.53;;;;;;;9.77;58.27;93188.72;5063138;28;20346;-80
2022/11/22 11:47:37;;;;;;;18.02;7.75;;;;;;;9.82;58.31;93225.78;5063279;28;20009;-80
2022/11/22 11:50:02;;;;;;;18.40;7.38;;;;;;;9.82;57.70;93191.19;5062872;28;20258;-79
2022/11/22 11:52:29;;;;;;;17.73;7.90;;;;;;;9.85;57.92;93192.44;5063301;28;20031;-77
2022/11/22 11:54:57;;;;;;;16.75;8.15;;;;;;;9.83;58.02;93199.94;5063270;28;20048;-81
2022/11/22 11:57:35;;;;;;;16.27;7.63;;;;;;;9.74;58.34;93194.69;5061713;28;20275;-83
2022/11/22 12:00:05;;;;;;;17.42;7.63;;;;;;;9.68;58.24;93195.22;5063312;28;20033;-83
2022/11/22 12:02:41;;;;;;;23.58;7.63;;;;;;;9.63;59.11;93185.53;5062833;28;20029;-79
2022/11/22 12:05:25;;;;;;;16.00;7.80;;;;;;;9.46;60.33;93225.53;5062960;28;20066;-81